Decoded Metar for SARL (PASO DE LOS LIBRES in ARGENTINA) (IATA:AOL) | Meteo·Mobile Aviation Weather
aviador You're here:

SARL Decoded Metar

PASO DE LOS LIBRES in ARGENTINA
Report Time2018-10-23 10:00:00
UTC Time2018-10-23 10:22:44
Flight Rules vfr VFR
Wind160° at 14 kt
W.Decomp.*RWY 18: 13.8 kt HW 2.2 kt LCW
W.Rank160° ranks 8
Current wind is above 160° avg. (10.1)
Visibility9999 m
Phenomena:N/A
Clouds:N/A
Expected CloudBase > 1,200 ft AGL from Temp-Dew spread
CeilingNone
Temp19°C (ISA +4)
Dew Point16°C (83% RH)
AAT16.0°C
QNH1015 hPa
Density Alt928 ft
Elevation230 ft
Report Wrong Elevation
Raw Report
SARL 231000Z 16014KT CAVOK 19/16 Q1015=

Extra information for SARL:More info

Metar Taf Metar & Taf Last 4 Metars F.Rules Stats Wind Profile Meteogram Temp Stats Airport Information Weather charts Add Link Nearby VenuesMetar ALERT Operation Metar Decoded Social comments